createdAt,value
2023-01-28T00:02:01.469Z,29.33
2023-01-28T00:04:28.476Z,25.00
2023-01-28T00:06:56.358Z,27.67
2023-01-28T00:09:24.083Z,23.33
2023-01-28T00:11:52.227Z,28.00
2023-01-28T00:14:19.895Z,31.00
2023-01-28T00:16:47.703Z,29.33
2023-01-28T00:19:15.678Z,27.33
2023-01-28T00:21:45.201Z,24.50
2023-01-28T00:24:13.098Z,31.00
2023-01-28T00:26:42.989Z,26.33
2023-01-28T00:29:11.683Z,27.67
2023-01-28T00:31:41.043Z,33.67
2023-01-28T00:34:09.590Z,25.67
2023-01-28T00:36:39.470Z,21.33
2023-01-28T00:39:14.640Z,23.67
2023-01-28T00:41:42.597Z,31.00
2023-01-28T00:44:10.560Z,24.33
2023-01-28T00:46:38.371Z,27.33
2023-01-28T00:49:06.180Z,25.67
2023-01-28T00:51:34.926Z,20.80
2023-01-28T00:54:02.916Z,27.67
2023-01-28T00:56:32.536Z,25.67
2023-01-28T00:59:02.060Z,23.83
2023-01-28T01:01:30.002Z,27.67
2023-01-28T01:04:03.288Z,27.00
2023-01-28T01:06:34.282Z,24.00
2023-01-28T01:09:05.639Z,28.67
2023-01-28T01:11:34.998Z,23.67
2023-01-28T01:14:05.397Z,25.00
2023-01-28T01:16:35.477Z,30.67
2023-01-28T01:19:03.959Z,26.33
2023-01-28T01:21:32.098Z,28.00
2023-01-28T01:24:00.124Z,25.33
2023-01-28T01:26:28.193Z,22.67
2023-01-28T01:28:56.290Z,25.00
2023-01-28T01:31:24.160Z,31.67
2023-01-28T01:33:53.395Z,27.33
2023-01-28T01:36:22.260Z,28.00
2023-01-28T01:38:55.545Z,21.60
2023-01-28T01:41:30.413Z,26.33
2023-01-28T01:44:01.024Z,30.50
2023-01-28T01:46:48.319Z,26.33
2023-01-28T01:49:28.412Z,26.33
2023-01-28T01:52:07.975Z,18.00
2023-01-28T01:54:38.953Z,27.67
2023-01-28T01:57:10.272Z,26.00
2023-01-28T01:59:39.703Z,23.33
2023-01-28T02:02:09.848Z,23.67
2023-01-28T02:04:44.860Z,18.80
2023-01-28T02:07:15.626Z,23.00
2023-01-28T02:09:43.531Z,26.67
2023-01-28T02:12:16.358Z,26.67
2023-01-28T02:15:09.690Z,21.67
2023-01-28T02:17:38.191Z,31.33
2023-01-28T02:20:09.677Z,16.00
2023-01-28T02:23:05.616Z,28.00
2023-01-28T02:25:44.100Z,21.33
2023-01-28T02:28:22.587Z,23.00
2023-01-28T02:31:19.851Z,20.60
2023-01-28T02:33:55.557Z,21.50
2023-01-28T02:36:54.815Z,24.67
2023-01-28T02:39:27.385Z,27.00
2023-01-28T02:42:27.622Z,26.33
2023-01-28T02:44:55.655Z,25.00
2023-01-28T02:47:41.792Z,30.33
2023-01-28T02:50:14.585Z,30.25
2023-01-28T02:53:38.837Z,22.50
2023-01-28T02:56:40.256Z,24.33
2023-01-28T02:59:31.094Z,29.17
2023-01-28T03:02:20.617Z,27.67
2023-01-28T03:05:28.859Z,23.67
2023-01-28T03:07:58.145Z,30.00
2023-01-28T03:10:28.527Z,24.00
2023-01-28T03:13:18.079Z,26.00
2023-01-28T03:16:09.022Z,22.67
2023-01-28T03:19:06.859Z,21.00
2023-01-28T03:22:01.272Z,33.67
2023-01-28T03:24:52.195Z,30.33
2023-01-28T03:27:43.204Z,28.00
2023-01-28T03:30:41.197Z,27.67
2023-01-28T03:33:29.074Z,27.33
2023-01-28T03:36:15.571Z,22.67
2023-01-28T03:38:43.863Z,19.00
2023-01-28T03:41:12.340Z,21.33
2023-01-28T03:43:40.343Z,29.67
2023-01-28T03:46:09.935Z,33.00
2023-01-28T03:48:37.788Z,23.33
2023-01-28T03:51:05.712Z,27.00
2023-01-28T03:53:35.422Z,30.50
2023-01-28T03:56:05.034Z,27.67
2023-01-28T03:58:53.149Z,28.33
2023-01-28T04:01:21.596Z,23.33
2023-01-28T04:03:49.596Z,26.33
2023-01-28T04:06:17.565Z,31.00
2023-01-28T04:08:49.257Z,28.67
2023-01-28T04:11:19.405Z,25.33
2023-01-28T04:13:49.281Z,24.67
2023-01-28T04:16:18.241Z,27.00
2023-01-28T04:18:46.619Z,27.00
2023-01-28T04:21:14.545Z,30.67
2023-01-28T04:23:42.429Z,29.33
2023-01-28T04:26:12.394Z,26.67
2023-01-28T04:28:40.184Z,25.00
2023-01-28T04:31:08.497Z,30.33
2023-01-28T04:33:36.437Z,31.00
2023-01-28T04:36:03.554Z,35.00
2023-01-28T04:38:31.339Z,33.33
2023-01-28T04:40:59.387Z,27.67
2023-01-28T04:43:27.268Z,26.67
2023-01-28T04:45:55.058Z,33.67
2023-01-28T04:48:23.912Z,17.60
2023-01-28T04:50:51.988Z,30.67
2023-01-28T04:53:19.148Z,30.00
2023-01-28T04:55:46.972Z,30.67
2023-01-28T04:58:15.107Z,28.67
2023-01-28T05:00:43.017Z,26.33
2023-01-28T05:03:10.962Z,37.33
2023-01-28T05:05:39.344Z,32.67
2023-01-28T05:08:07.183Z,34.00
2023-01-28T05:10:35.005Z,31.33
2023-01-28T05:13:03.914Z,12.00
2023-01-28T05:15:31.120Z,31.50
2023-01-28T05:18:00.181Z,24.00
2023-01-28T05:20:27.587Z,25.00
2023-01-28T05:22:57.088Z,35.00
2023-01-28T05:25:25.029Z,40.33
2023-01-28T05:27:53.586Z,34.67
2023-01-28T05:30:22.239Z,32.50
2023-01-28T05:32:50.445Z,27.33
2023-01-28T05:35:19.427Z,32.75
2023-01-28T05:37:49.222Z,36.33
2023-01-28T05:40:16.731Z,34.00
2023-01-28T05:42:48.597Z,28.67
2023-01-28T05:45:18.240Z,35.17
2023-01-28T05:47:46.307Z,29.67
2023-01-28T05:50:15.484Z,37.67
2023-01-28T05:52:44.050Z,36.67
2023-01-28T05:55:12.143Z,35.33
2023-01-28T05:57:39.146Z,31.00
2023-01-28T06:00:06.971Z,29.00
2023-01-28T06:02:34.856Z,36.33
2023-01-28T06:05:03.975Z,18.00
2023-01-28T06:07:31.831Z,26.33
2023-01-28T06:10:02.404Z,29.33
2023-01-28T06:12:30.362Z,30.67
2023-01-28T06:15:00.064Z,30.17
2023-01-28T06:17:28.088Z,28.33
2023-01-28T06:19:55.275Z,29.00
2023-01-28T06:22:22.557Z,35.00
2023-01-28T06:24:50.516Z,34.67
2023-01-28T06:27:18.488Z,39.67
2023-01-28T06:29:45.451Z,48.00
2023-01-28T06:32:13.885Z,32.33
2023-01-28T06:34:41.074Z,48.50
2023-01-28T06:37:08.139Z,38.50
2023-01-28T06:39:36.175Z,36.67
2023-01-28T06:42:03.269Z,41.00
2023-01-28T06:44:30.195Z,43.00
2023-01-28T06:47:01.283Z,45.00
2023-01-28T06:49:29.256Z,49.00
2023-01-28T06:51:56.327Z,39.50
2023-01-28T06:54:24.994Z,42.25
2023-01-28T06:56:52.976Z,48.00
2023-01-28T06:59:20.824Z,45.00
2023-01-28T07:01:48.656Z,35.33
2023-01-28T07:04:16.531Z,43.67
2023-01-28T07:06:44.853Z,37.67
2023-01-28T07:09:12.151Z,44.00
2023-01-28T07:11:40.382Z,41.33
2023-01-28T07:14:07.360Z,45.00
2023-01-28T07:16:34.266Z,42.00
2023-01-28T07:19:01.376Z,38.00
2023-01-28T07:21:29.212Z,39.33
2023-01-28T07:23:57.078Z,39.00
2023-01-28T07:26:25.150Z,38.33
2023-01-28T07:28:52.065Z,42.50
2023-01-28T07:31:20.179Z,36.33
2023-01-28T07:33:48.383Z,32.00
2023-01-28T07:36:16.379Z,46.00
2023-01-28T07:38:43.383Z,44.00
2023-01-28T07:41:11.361Z,45.00
2023-01-28T07:43:38.271Z,42.50
2023-01-28T07:46:06.888Z,47.50
2023-01-28T07:48:36.147Z,42.75
2023-01-28T07:51:03.323Z,45.00
2023-01-28T07:53:30.294Z,43.00
2023-01-28T07:56:02.015Z,48.50
2023-01-28T07:58:29.240Z,33.00
2023-01-28T08:00:59.789Z,42.00
2023-01-28T08:03:29.104Z,35.67
2023-01-28T08:05:57.057Z,47.00
2023-01-28T08:08:25.468Z,52.00
2023-01-28T08:10:56.285Z,42.50
2023-01-28T08:13:23.509Z,52.00
2023-01-28T08:15:56.899Z,43.67
2023-01-28T08:18:24.968Z,45.00
2023-01-28T08:20:55.957Z,47.00
2023-01-28T08:23:24.524Z,40.00
2023-01-28T08:25:53.191Z,38.33
2023-01-28T08:28:21.108Z,43.50
2023-01-28T08:30:48.905Z,45.33
2023-01-28T08:33:17.318Z,44.00
2023-01-28T08:35:44.606Z,45.00
2023-01-28T08:38:13.360Z,45.00
2023-01-28T08:40:40.407Z,40.00
2023-01-28T08:43:07.524Z,48.00
2023-01-28T08:45:35.608Z,41.67
2023-01-28T08:48:08.464Z,45.00
2023-01-28T08:50:37.055Z,47.00
2023-01-28T08:53:06.816Z,49.00
2023-01-28T08:55:34.843Z,45.00
2023-01-28T08:58:05.109Z,48.00
2023-01-28T09:00:34.069Z,40.33
2023-01-28T09:03:04.590Z,43.33
2023-01-28T09:05:35.840Z,43.33
2023-01-28T09:08:08.288Z,45.50
2023-01-28T09:10:41.387Z,48.33
2023-01-28T09:13:14.733Z,50.33
2023-01-28T09:15:43.016Z,42.50
2023-01-28T09:18:11.152Z,39.67
2023-01-28T09:20:38.842Z,44.00
2023-01-28T09:23:06.869Z,51.50
2023-01-28T09:25:36.439Z,40.50
2023-01-28T09:28:05.283Z,45.00
2023-01-28T09:30:34.847Z,45.33
2023-01-28T09:33:04.269Z,27.67
2023-01-28T09:35:31.253Z,42.00
2023-01-28T09:37:59.270Z,45.50
2023-01-28T09:40:26.948Z,41.33
2023-01-28T09:43:18.346Z,43.25
2023-01-28T09:45:51.379Z,16.00
2023-01-28T09:48:21.824Z,35.00
2023-01-28T09:50:56.838Z,42.00
2023-01-28T09:53:28.513Z,39.00
2023-01-28T09:56:01.688Z,39.50
2023-01-28T09:58:29.542Z,40.00
2023-01-28T10:01:10.056Z,33.67
2023-01-28T10:03:39.955Z,39.00
2023-01-28T10:06:14.683Z,37.33
2023-01-28T10:09:00.468Z,40.00
2023-01-28T10:12:06.075Z,41.00
2023-01-28T10:14:35.827Z,39.00
2023-01-28T10:17:06.457Z,48.00
2023-01-28T10:20:00.699Z,46.75
2023-01-28T10:22:39.819Z,40.00
2023-01-28T10:25:18.963Z,46.00
2023-01-28T10:27:50.263Z,36.33
2023-01-28T10:30:25.688Z,45.50
2023-01-28T10:33:01.208Z,33.33
2023-01-28T10:35:34.943Z,38.33
2023-01-28T10:38:08.309Z,30.00
2023-01-28T10:40:36.578Z,40.00
2023-01-28T10:43:03.516Z,36.50
2023-01-28T10:45:36.708Z,42.50
2023-01-28T10:48:06.226Z,28.00
2023-01-28T10:50:35.760Z,30.33
2023-01-28T10:53:05.640Z,37.00
2023-01-28T10:55:47.072Z,39.00
2023-01-28T10:58:29.361Z,36.00
2023-01-28T11:01:00.804Z,40.00
2023-01-28T11:03:32.200Z,41.00
2023-01-28T11:06:00.323Z,40.00
2023-01-28T11:08:31.256Z,31.33
2023-01-28T11:10:58.634Z,43.00
2023-01-28T11:13:29.301Z,42.00
2023-01-28T11:16:16.625Z,37.00
2023-01-28T11:18:55.810Z,35.00
2023-01-28T11:21:29.608Z,39.50
2023-01-28T11:24:02.376Z,41.50
2023-01-28T11:26:32.989Z,42.00
2023-01-28T11:29:00.094Z,45.50
2023-01-28T11:31:29.444Z,19.00
2023-01-28T11:33:59.725Z,37.67
2023-01-28T11:36:29.287Z,44.00
2023-01-28T11:39:16.625Z,38.00
2023-01-28T11:41:44.475Z,33.00
2023-01-28T11:44:20.973Z,31.25
2023-01-28T11:47:07.743Z,40.00
2023-01-28T11:49:51.473Z,36.75
2023-01-28T11:53:07.366Z,35.00
2023-01-28T11:56:00.139Z,36.00
2023-01-28T11:58:51.431Z,36.50
2023-01-28T12:01:22.067Z,42.67
2023-01-28T12:04:04.644Z,34.00
2023-01-28T12:06:54.276Z,34.00
2023-01-28T12:09:43.835Z,28.67
2023-01-28T12:12:30.279Z,45.00
2023-01-28T12:15:04.096Z,45.00
2023-01-28T12:17:53.155Z,36.00
2023-01-28T12:20:23.483Z,37.00
2023-01-28T12:23:00.617Z,44.33
2023-01-28T12:25:46.315Z,42.50
2023-01-28T12:28:23.674Z,39.50
2023-01-28T12:31:31.892Z,46.00
2023-01-28T12:34:05.625Z,49.00
2023-01-28T12:36:39.016Z,38.67
2023-01-28T12:39:17.638Z,39.50
2023-01-28T12:41:56.248Z,47.00
2023-01-28T12:44:36.178Z,48.00
2023-01-28T12:47:16.189Z,43.00
2023-01-28T12:49:51.311Z,38.00
2023-01-28T12:52:38.244Z,39.50
2023-01-28T12:55:16.363Z,42.00
2023-01-28T12:57:45.165Z,43.33
2023-01-28T13:00:25.854Z,45.00
2023-01-28T13:03:20.457Z,41.75
2023-01-28T13:05:54.187Z,42.67
2023-01-28T13:08:25.853Z,39.67
2023-01-28T13:10:57.604Z,39.00
2023-01-28T13:13:31.394Z,42.50
2023-01-28T13:16:00.812Z,49.00
2023-01-28T13:18:33.275Z,36.00
2023-01-28T13:21:01.972Z,45.00
2023-01-28T13:23:32.246Z,41.00
2023-01-28T13:26:11.003Z,23.00
2023-01-28T13:28:37.946Z,39.00
2023-01-28T13:31:17.781Z,42.25
2023-01-28T13:34:03.027Z,43.00
2023-01-28T13:36:34.726Z,58.00
2023-01-28T13:39:08.482Z,48.67
2023-01-28T13:41:46.817Z,49.67
2023-01-28T13:44:22.203Z,39.75
2023-01-28T13:46:49.936Z,41.50
2023-01-28T13:49:26.142Z,42.00
2023-01-28T13:52:09.482Z,48.00
2023-01-28T13:55:02.739Z,48.50
2023-01-28T13:57:48.327Z,42.00
2023-01-28T14:00:26.419Z,43.67
2023-01-28T14:03:03.389Z,45.67
2023-01-28T14:06:13.483Z,47.00
2023-01-28T14:08:54.707Z,42.50
2023-01-28T14:11:22.500Z,42.00
2023-01-28T14:14:24.060Z,45.00
2023-01-28T14:16:56.084Z,49.00
2023-01-28T14:19:35.252Z,42.67
2023-01-28T14:22:10.529Z,46.00
2023-01-28T14:24:40.130Z,42.50
2023-01-28T14:27:37.758Z,48.50
2023-01-28T14:30:45.472Z,25.67
2023-01-28T14:33:13.103Z,47.00
2023-01-28T14:35:48.679Z,52.00
2023-01-28T14:38:22.415Z,45.00
2023-01-28T14:40:52.535Z,45.00
2023-01-28T14:43:24.470Z,48.00
2023-01-28T14:46:08.959Z,45.67
2023-01-28T14:49:01.447Z,44.00
2023-01-28T14:51:43.653Z,34.00
2023-01-28T14:54:54.764Z,48.67
2023-01-28T14:57:34.172Z,46.50
2023-01-28T15:00:08.589Z,50.00
2023-01-28T15:02:45.047Z,54.00
2023-01-28T15:05:19.669Z,47.00
2023-01-28T15:07:49.613Z,45.00
2023-01-28T15:10:26.984Z,33.00
2023-01-28T15:13:00.991Z,46.00
2023-01-28T15:15:36.976Z,47.00
2023-01-28T15:18:14.496Z,42.67
2023-01-28T15:20:47.974Z,52.00
2023-01-28T15:23:19.683Z,44.33
2023-01-28T15:25:47.733Z,43.00
2023-01-28T15:28:45.025Z,48.00
2023-01-28T15:31:28.581Z,46.00
2023-01-28T15:34:01.815Z,49.33
2023-01-28T15:36:30.201Z,49.00
2023-01-28T15:38:59.084Z,52.00
2023-01-28T15:41:39.160Z,50.00
2023-01-28T15:44:08.127Z,51.50
2023-01-28T15:46:35.467Z,45.50
2023-01-28T15:49:04.633Z,49.00
2023-01-28T15:51:36.919Z,49.00
2023-01-28T15:54:09.525Z,46.00
2023-01-28T15:56:38.340Z,47.00
2023-01-28T15:59:28.044Z,45.00
2023-01-28T16:02:19.768Z,39.50
2023-01-28T16:05:00.980Z,45.33
2023-01-28T16:07:33.493Z,49.00
2023-01-28T16:10:04.275Z,42.50
2023-01-28T16:12:33.274Z,43.67
2023-01-28T16:15:03.343Z,42.67
2023-01-28T16:17:41.536Z,44.33
2023-01-28T16:20:25.432Z,33.50
2023-01-28T16:22:55.885Z,45.00
2023-01-28T16:25:23.937Z,40.00
2023-01-28T16:27:53.807Z,32.33
2023-01-28T16:30:21.065Z,38.00
2023-01-28T16:32:49.444Z,42.67
2023-01-28T16:35:25.121Z,36.00
2023-01-28T16:37:53.100Z,42.67
2023-01-28T16:40:23.695Z,45.00
2023-01-28T16:42:55.552Z,45.50
2023-01-28T16:45:29.628Z,42.00
2023-01-28T16:47:57.031Z,35.00
2023-01-28T16:50:25.019Z,40.00
2023-01-28T16:52:54.918Z,43.50
2023-01-28T16:55:23.154Z,49.00
2023-01-28T16:57:58.449Z,40.33
2023-01-28T17:00:28.094Z,46.67
2023-01-28T17:02:56.279Z,44.00
2023-01-28T17:05:27.239Z,48.67
2023-01-28T17:07:59.305Z,38.33
2023-01-28T17:10:27.046Z,41.67
2023-01-28T17:12:59.104Z,48.00
2023-01-28T17:15:28.768Z,33.50
2023-01-28T17:17:56.867Z,48.33
2023-01-28T17:20:25.071Z,39.33
2023-01-28T17:22:52.533Z,45.50
2023-01-28T17:25:20.404Z,48.33
2023-01-28T17:27:51.019Z,36.67
2023-01-28T17:30:20.915Z,46.67
2023-01-28T17:32:48.883Z,36.00
2023-01-28T17:35:20.174Z,48.00
2023-01-28T17:37:48.523Z,45.50
2023-01-28T17:40:18.592Z,40.67
2023-01-28T17:42:50.296Z,48.33
2023-01-28T17:45:23.942Z,45.50
2023-01-28T17:47:55.189Z,45.00
2023-01-28T17:50:22.654Z,47.00
2023-01-28T17:53:00.104Z,26.33
2023-01-28T17:55:32.324Z,43.00
2023-01-28T17:58:00.740Z,38.00
2023-01-28T18:00:27.912Z,34.00
2023-01-28T18:02:56.118Z,49.00
2023-01-28T18:05:23.440Z,48.00
2023-01-28T18:07:52.747Z,48.00
2023-01-28T18:10:20.953Z,43.00
2023-01-28T18:12:49.478Z,42.67
2023-01-28T18:15:17.083Z,42.00
2023-01-28T18:17:46.029Z,34.00
2023-01-28T18:20:13.398Z,48.00
2023-01-28T18:22:40.600Z,39.50
2023-01-28T18:25:11.688Z,39.00
2023-01-28T18:27:38.644Z,45.00
2023-01-28T18:30:07.057Z,48.33
2023-01-28T18:32:35.084Z,49.00
2023-01-28T18:35:02.562Z,41.50
2023-01-28T18:37:30.147Z,45.50
2023-01-28T18:39:59.026Z,48.75
2023-01-28T18:42:27.410Z,49.00
2023-01-28T18:44:55.491Z,49.50
2023-01-28T18:47:23.346Z,43.33
2023-01-28T18:49:51.608Z,44.33
2023-01-28T18:52:19.494Z,47.00
2023-01-28T18:54:46.467Z,52.00
2023-01-28T18:57:15.277Z,49.00
2023-01-28T18:59:42.536Z,49.00
2023-01-28T19:02:13.911Z,52.00
2023-01-28T19:04:40.865Z,48.50
2023-01-28T19:07:11.419Z,43.00
2023-01-28T19:09:39.592Z,52.00
2023-01-28T19:12:09.535Z,47.00
2023-01-28T19:14:37.212Z,48.00
2023-01-28T19:17:05.790Z,36.67
2023-01-28T19:19:35.006Z,48.33
2023-01-28T19:22:02.785Z,53.33
2023-01-28T19:24:29.885Z,45.00
2023-01-28T19:26:59.526Z,47.00
2023-01-28T19:29:28.875Z,45.00
2023-01-28T19:31:55.956Z,35.00
2023-01-28T19:34:24.230Z,49.00
2023-01-28T19:36:52.428Z,38.67
2023-01-28T19:39:20.684Z,54.00
2023-01-28T19:41:51.272Z,48.50
2023-01-28T19:44:19.909Z,46.33
2023-01-28T19:46:50.177Z,52.00
2023-01-28T19:49:19.254Z,49.67
2023-01-28T19:51:47.232Z,50.00
2023-01-28T19:54:15.275Z,49.00
2023-01-28T19:56:45.132Z,48.00
2023-01-28T19:59:12.538Z,42.50
2023-01-28T20:01:39.461Z,48.00
2023-01-28T20:04:07.160Z,37.00
2023-01-28T20:06:36.060Z,49.00
2023-01-28T20:09:11.434Z,29.00
2023-01-28T20:11:40.042Z,45.33
2023-01-28T20:14:07.175Z,45.00
2023-01-28T20:16:51.660Z,45.00
2023-01-28T20:19:38.428Z,38.00
2023-01-28T20:22:06.302Z,29.67
2023-01-28T20:24:33.383Z,48.00
2023-01-28T20:27:04.141Z,43.00
2023-01-28T20:29:31.085Z,49.00
2023-01-28T20:32:15.452Z,45.00
2023-01-28T20:34:46.553Z,43.00
2023-01-28T20:37:13.610Z,45.50
2023-01-28T20:39:42.128Z,40.00
2023-01-28T20:42:13.507Z,36.00
2023-01-28T20:44:40.971Z,42.00
2023-01-28T20:47:09.145Z,42.33
2023-01-28T20:49:36.227Z,40.00
2023-01-28T20:52:04.556Z,48.50
2023-01-28T20:54:32.482Z,42.67
2023-01-28T20:57:01.792Z,42.00
2023-01-28T20:59:31.337Z,39.67
2023-01-28T21:02:01.288Z,44.33
2023-01-28T21:04:29.190Z,49.00
2023-01-28T21:06:57.250Z,41.00
2023-01-28T21:09:25.930Z,37.00
2023-01-28T21:11:54.103Z,36.00
2023-01-28T21:14:21.055Z,45.00
2023-01-28T21:16:51.347Z,47.00
2023-01-28T21:19:20.631Z,45.75
2023-01-28T21:21:47.633Z,48.50
2023-01-28T21:24:14.604Z,44.00
2023-01-28T21:26:42.720Z,38.00
2023-01-28T21:29:09.751Z,34.00
2023-01-28T21:31:37.716Z,42.00
2023-01-28T21:34:04.633Z,42.00
2023-01-28T21:36:37.323Z,42.00
2023-01-28T21:39:05.278Z,45.00
2023-01-28T21:41:32.466Z,43.00
2023-01-28T21:44:00.738Z,45.00
2023-01-28T21:46:32.401Z,33.00
2023-01-28T21:49:05.524Z,37.00
2023-01-28T21:51:47.456Z,38.50
2023-01-28T21:54:21.157Z,45.00
2023-01-28T21:56:50.621Z,44.33
2023-01-28T21:59:29.400Z,44.33
2023-01-28T22:02:00.907Z,42.00
2023-01-28T22:04:36.303Z,38.00
2023-01-28T22:07:07.001Z,39.00
2023-01-28T22:09:35.528Z,15.33
2023-01-28T22:12:06.990Z,36.67
2023-01-28T22:14:39.473Z,39.67
2023-01-28T22:17:11.919Z,46.00
2023-01-28T22:19:40.640Z,39.00
2023-01-28T22:22:08.279Z,45.00
2023-01-28T22:24:38.313Z,40.50
2023-01-28T22:27:05.641Z,42.50
2023-01-28T22:29:33.868Z,43.00
2023-01-28T22:32:04.192Z,38.00
2023-01-28T22:34:32.834Z,33.00
2023-01-28T22:37:00.837Z,48.00
2023-01-28T22:39:27.827Z,41.00
2023-01-28T22:41:55.695Z,42.00
2023-01-28T22:44:23.532Z,28.33
2023-01-28T22:46:52.063Z,40.50
2023-01-28T22:49:20.345Z,40.00
2023-01-28T22:51:48.189Z,38.50
2023-01-28T22:54:15.350Z,44.00
2023-01-28T22:56:43.479Z,23.67
2023-01-28T22:59:11.904Z,41.00
2023-01-28T23:01:40.482Z,43.00
2023-01-28T23:04:08.447Z,39.67
2023-01-28T23:06:37.465Z,38.33
2023-01-28T23:09:05.561Z,27.67
2023-01-28T23:11:33.454Z,45.50
2023-01-28T23:14:22.353Z,40.50
2023-01-28T23:17:08.964Z,45.00
2023-01-28T23:19:54.948Z,36.50
2023-01-28T23:22:46.015Z,40.00
2023-01-28T23:25:15.799Z,39.00
2023-01-28T23:27:45.253Z,42.67
2023-01-28T23:30:14.237Z,36.00
2023-01-28T23:32:47.393Z,35.33
2023-01-28T23:35:15.124Z,37.00
2023-01-28T23:37:43.004Z,39.00
2023-01-28T23:40:10.650Z,39.00
2023-01-28T23:42:37.865Z,35.00
2023-01-28T23:45:07.111Z,37.00
2023-01-28T23:47:34.425Z,44.00
2023-01-28T23:50:01.364Z,39.50
2023-01-28T23:52:29.481Z,34.33
2023-01-28T23:54:58.892Z,41.00
2023-01-28T23:57:27.061Z,33.00
2023-01-28T23:59:54.018Z,38.00
